Burton-on-Trent, United Kingdom
Current Conditions -  °F | °C
As of 5:50 PM on Saturday 25 Oct 2014 (Local Time) from EGNX Reporting Station
Broken Clouds Broken Clouds  
Wind Chill: 55°   Ceiling: 4400
Heat Index: 55°   Visibility: 6mi
Dew Point: 48°   Wind: 12mph
Humidity: 77%   Direction: 210°SSW
Pressure: 30"   Gusts: NA
Location:  52.79°N, 1.66°W
Report Text: EGNX 251650Z 21010KT 9999 FEW023 SCT036 BKN044 13/09 Q1016
Loading
Personal Weather Stations






























Interactive Weather Map New forecast layout! Learn more

10-Day Weather Forecast

Advertisements
Track Severe Weather on mobile